sensor_id;sensor_type;location;lat;lon;timestamp;temperature;humidity
11426;DHT22;5769;47.998;7.788;2023-02-03T00:00:30;21.20;57.30
11426;DHT22;5769;47.998;7.788;2023-02-03T00:02:57;21.20;57.30
11426;DHT22;5769;47.998;7.788;2023-02-03T00:05:24;21.20;57.30
11426;DHT22;5769;47.998;7.788;2023-02-03T00:07:51;21.20;57.30
11426;DHT22;5769;47.998;7.788;2023-02-03T00:10:18;21.20;57.40
11426;DHT22;5769;47.998;7.788;2023-02-03T00:12:46;21.20;57.30
11426;DHT22;5769;47.998;7.788;2023-02-03T00:15:13;21.20;57.40
11426;DHT22;5769;47.998;7.788;2023-02-03T00:17:41;21.20;57.40
11426;DHT22;5769;47.998;7.788;2023-02-03T00:20:09;21.20;57.40
11426;DHT22;5769;47.998;7.788;2023-02-03T00:22:36;21.20;57.40
11426;DHT22;5769;47.998;7.788;2023-02-03T00:25:04;21.20;57.40
11426;DHT22;5769;47.998;7.788;2023-02-03T00:27:31;21.20;57.40
11426;DHT22;5769;47.998;7.788;2023-02-03T00:29:57;21.20;57.40
11426;DHT22;5769;47.998;7.788;2023-02-03T00:32:24;21.20;57.40
11426;DHT22;5769;47.998;7.788;2023-02-03T00:34:52;21.20;57.40
11426;DHT22;5769;47.998;7.788;2023-02-03T00:37:19;21.20;57.50
11426;DHT22;5769;47.998;7.788;2023-02-03T00:39:47;21.20;57.50
11426;DHT22;5769;47.998;7.788;2023-02-03T00:42:14;21.20;57.50
11426;DHT22;5769;47.998;7.788;2023-02-03T00:44:41;21.20;57.50
11426;DHT22;5769;47.998;7.788;2023-02-03T00:47:08;21.20;57.50
11426;DHT22;5769;47.998;7.788;2023-02-03T00:49:34;21.20;57.50
11426;DHT22;5769;47.998;7.788;2023-02-03T00:52:03;21.20;57.50
11426;DHT22;5769;47.998;7.788;2023-02-03T00:54:30;21.20;57.50
11426;DHT22;5769;47.998;7.788;2023-02-03T00:56:56;21.20;57.50
11426;DHT22;5769;47.998;7.788;2023-02-03T00:59:23;21.20;57.50
11426;DHT22;5769;47.998;7.788;2023-02-03T01:01:50;21.20;57.50
11426;DHT22;5769;47.998;7.788;2023-02-03T01:04:16;21.20;57.50
11426;DHT22;5769;47.998;7.788;2023-02-03T01:06:43;21.20;57.50
11426;DHT22;5769;47.998;7.788;2023-02-03T01:09:11;21.20;57.50
11426;DHT22;5769;47.998;7.788;2023-02-03T01:11:38;21.20;57.50
11426;DHT22;5769;47.998;7.788;2023-02-03T01:14:04;21.20;57.50
11426;DHT22;5769;47.998;7.788;2023-02-03T01:16:31;21.20;57.60
11426;DHT22;5769;47.998;7.788;2023-02-03T01:19:01;21.20;57.50
11426;DHT22;5769;47.998;7.788;2023-02-03T01:21:27;21.20;57.50
11426;DHT22;5769;47.998;7.788;2023-02-03T01:23:55;21.20;57.60
11426;DHT22;5769;47.998;7.788;2023-02-03T01:26:23;21.20;57.60
11426;DHT22;5769;47.998;7.788;2023-02-03T01:28:50;21.20;57.60
11426;DHT22;5769;47.998;7.788;2023-02-03T01:31:19;21.20;57.60
11426;DHT22;5769;47.998;7.788;2023-02-03T01:33:46;21.20;57.50
11426;DHT22;5769;47.998;7.788;2023-02-03T01:36:14;21.20;57.50
11426;DHT22;5769;47.998;7.788;2023-02-03T01:38:41;21.20;57.60
11426;DHT22;5769;47.998;7.788;2023-02-03T01:41:11;21.20;57.60
11426;DHT22;5769;47.998;7.788;2023-02-03T01:43:41;21.20;58.10
11426;DHT22;5769;47.998;7.788;2023-02-03T01:46:21;21.20;57.60
11426;DHT22;5769;47.998;7.788;2023-02-03T01:48:50;21.20;57.60
11426;DHT22;5769;47.998;7.788;2023-02-03T01:51:18;21.20;57.60
11426;DHT22;5769;47.998;7.788;2023-02-03T01:53:45;21.20;57.60
11426;DHT22;5769;47.998;7.788;2023-02-03T01:56:11;21.20;57.60
11426;DHT22;5769;47.998;7.788;2023-02-03T01:58:40;21.20;57.60
11426;DHT22;5769;47.998;7.788;2023-02-03T02:01:08;21.20;57.60
11426;DHT22;5769;47.998;7.788;2023-02-03T02:03:37;21.20;57.60
11426;DHT22;5769;47.998;7.788;2023-02-03T02:06:06;21.20;57.60
11426;DHT22;5769;47.998;7.788;2023-02-03T02:08:34;21.20;57.60
11426;DHT22;5769;47.998;7.788;2023-02-03T02:11:01;21.20;57.60
11426;DHT22;5769;47.998;7.788;2023-02-03T02:13:31;21.20;57.60
11426;DHT22;5769;47.998;7.788;2023-02-03T02:16:06;21.20;57.60
11426;DHT22;5769;47.998;7.788;2023-02-03T02:18:43;21.20;57.60
11426;DHT22;5769;47.998;7.788;2023-02-03T02:21:28;21.20;57.60
11426;DHT22;5769;47.998;7.788;2023-02-03T02:24:24;21.20;57.60
11426;DHT22;5769;47.998;7.788;2023-02-03T02:27:01;21.20;57.60
11426;DHT22;5769;47.998;7.788;2023-02-03T02:30:11;21.20;57.60
11426;DHT22;5769;47.998;7.788;2023-02-03T02:33:04;21.20;57.60
11426;DHT22;5769;47.998;7.788;2023-02-03T02:35:44;21.20;57.60
11426;DHT22;5769;47.998;7.788;2023-02-03T02:38:18;21.20;57.60
11426;DHT22;5769;47.998;7.788;2023-02-03T02:40:50;21.20;57.60
11426;DHT22;5769;47.998;7.788;2023-02-03T02:43:21;21.20;57.60
11426;DHT22;5769;47.998;7.788;2023-02-03T02:45:55;21.20;57.60
11426;DHT22;5769;47.998;7.788;2023-02-03T02:48:27;21.20;57.60
11426;DHT22;5769;47.998;7.788;2023-02-03T02:50:56;21.20;57.60
11426;DHT22;5769;47.998;7.788;2023-02-03T02:53:28;21.20;57.60
11426;DHT22;5769;47.998;7.788;2023-02-03T02:55:59;21.20;57.60
11426;DHT22;5769;47.998;7.788;2023-02-03T02:58:31;21.20;57.60
11426;DHT22;5769;47.998;7.788;2023-02-03T03:00:59;21.20;57.60
11426;DHT22;5769;47.998;7.788;2023-02-03T03:03:28;21.30;57.60
11426;DHT22;5769;47.998;7.788;2023-02-03T03:05:58;21.20;57.50
11426;DHT22;5769;47.998;7.788;2023-02-03T03:08:31;21.20;57.60
11426;DHT22;5769;47.998;7.788;2023-02-03T03:11:00;21.20;57.60
11426;DHT22;5769;47.998;7.788;2023-02-03T03:13:32;21.20;57.50
11426;DHT22;5769;47.998;7.788;2023-02-03T03:16:01;21.20;57.50
11426;DHT22;5769;47.998;7.788;2023-02-03T03:18:35;21.20;57.60
11426;DHT22;5769;47.998;7.788;2023-02-03T03:21:05;21.20;57.50
11426;DHT22;5769;47.998;7.788;2023-02-03T03:23:34;21.20;57.50
11426;DHT22;5769;47.998;7.788;2023-02-03T03:26:08;21.20;57.50
11426;DHT22;5769;47.998;7.788;2023-02-03T03:28:41;21.20;57.50
11426;DHT22;5769;47.998;7.788;2023-02-03T03:31:10;21.20;57.50
11426;DHT22;5769;47.998;7.788;2023-02-03T03:33:38;21.20;57.50
11426;DHT22;5769;47.998;7.788;2023-02-03T03:36:13;21.20;57.50
11426;DHT22;5769;47.998;7.788;2023-02-03T03:38:48;21.20;57.50
11426;DHT22;5769;47.998;7.788;2023-02-03T03:41:18;21.20;57.50
11426;DHT22;5769;47.998;7.788;2023-02-03T03:43:49;21.20;57.50
11426;DHT22;5769;47.998;7.788;2023-02-03T03:46:19;21.20;57.50
11426;DHT22;5769;47.998;7.788;2023-02-03T03:48:51;21.20;57.50
11426;DHT22;5769;47.998;7.788;2023-02-03T03:51:22;21.20;57.50
11426;DHT22;5769;47.998;7.788;2023-02-03T03:53:51;21.20;57.40
11426;DHT22;5769;47.998;7.788;2023-02-03T03:56:23;21.20;57.50
11426;DHT22;5769;47.998;7.788;2023-02-03T03:58:52;21.20;57.40
11426;DHT22;5769;47.998;7.788;2023-02-03T04:01:20;21.20;57.50
11426;DHT22;5769;47.998;7.788;2023-02-03T04:03:52;21.20;57.50
11426;DHT22;5769;47.998;7.788;2023-02-03T04:06:20;21.30;57.20
11426;DHT22;5769;47.998;7.788;2023-02-03T04:08:46;21.20;57.10
11426;DHT22;5769;47.998;7.788;2023-02-03T04:11:13;21.20;57.20
11426;DHT22;5769;47.998;7.788;2023-02-03T04:14:00;21.10;57.40
11426;DHT22;5769;47.998;7.788;2023-02-03T04:16:27;21.10;57.40
11426;DHT22;5769;47.998;7.788;2023-02-03T04:18:55;21.10;57.40
11426;DHT22;5769;47.998;7.788;2023-02-03T04:21:21;21.10;57.30
11426;DHT22;5769;47.998;7.788;2023-02-03T04:23:48;21.00;57.30
11426;DHT22;5769;47.998;7.788;2023-02-03T04:26:15;21.00;57.30
11426;DHT22;5769;47.998;7.788;2023-02-03T04:28:42;21.00;57.30
11426;DHT22;5769;47.998;7.788;2023-02-03T04:31:09;21.00;57.90
11426;DHT22;5769;47.998;7.788;2023-02-03T04:33:36;21.00;57.40
11426;DHT22;5769;47.998;7.788;2023-02-03T04:36:04;21.00;57.40
11426;DHT22;5769;47.998;7.788;2023-02-03T04:38:31;21.00;57.30
11426;DHT22;5769;47.998;7.788;2023-02-03T04:40:58;21.00;57.30
11426;DHT22;5769;47.998;7.788;2023-02-03T04:43:25;21.00;57.10
11426;DHT22;5769;47.998;7.788;2023-02-03T04:45:52;21.00;57.20
11426;DHT22;5769;47.998;7.788;2023-02-03T04:48:18;20.90;57.10
11426;DHT22;5769;47.998;7.788;2023-02-03T04:50:45;20.90;57.10
11426;DHT22;5769;47.998;7.788;2023-02-03T04:53:13;20.90;57.20
11426;DHT22;5769;47.998;7.788;2023-02-03T04:55:40;21.00;57.20
11426;DHT22;5769;47.998;7.788;2023-02-03T04:58:07;20.90;57.10
11426;DHT22;5769;47.998;7.788;2023-02-03T05:00:34;20.90;57.10
11426;DHT22;5769;47.998;7.788;2023-02-03T05:03:00;20.90;57.10
11426;DHT22;5769;47.998;7.788;2023-02-03T05:05:27;20.90;57.10
11426;DHT22;5769;47.998;7.788;2023-02-03T05:07:54;20.90;57.00
11426;DHT22;5769;47.998;7.788;2023-02-03T05:10:22;20.90;57.10
11426;DHT22;5769;47.998;7.788;2023-02-03T05:12:48;20.90;57.00
11426;DHT22;5769;47.998;7.788;2023-02-03T05:15:15;20.90;57.30
11426;DHT22;5769;47.998;7.788;2023-02-03T05:17:42;20.90;57.00
11426;DHT22;5769;47.998;7.788;2023-02-03T05:20:10;20.90;57.10
11426;DHT22;5769;47.998;7.788;2023-02-03T05:22:36;20.80;57.00
11426;DHT22;5769;47.998;7.788;2023-02-03T05:25:04;20.80;57.00
11426;DHT22;5769;47.998;7.788;2023-02-03T05:27:32;20.80;56.90
11426;DHT22;5769;47.998;7.788;2023-02-03T05:29:58;20.80;57.00
11426;DHT22;5769;47.998;7.788;2023-02-03T05:32:25;20.80;56.90
11426;DHT22;5769;47.998;7.788;2023-02-03T05:34:52;20.80;56.90
11426;DHT22;5769;47.998;7.788;2023-02-03T05:37:19;20.80;56.90
11426;DHT22;5769;47.998;7.788;2023-02-03T05:39:45;20.80;56.90
11426;DHT22;5769;47.998;7.788;2023-02-03T05:42:12;20.80;56.90
11426;DHT22;5769;47.998;7.788;2023-02-03T05:44:39;20.80;56.80
11426;DHT22;5769;47.998;7.788;2023-02-03T05:47:06;20.80;56.90
11426;DHT22;5769;47.998;7.788;2023-02-03T05:49:32;20.80;56.90
11426;DHT22;5769;47.998;7.788;2023-02-03T05:51:59;20.80;56.90
11426;DHT22;5769;47.998;7.788;2023-02-03T05:54:26;20.80;56.90
11426;DHT22;5769;47.998;7.788;2023-02-03T05:56:52;20.70;56.80
11426;DHT22;5769;47.998;7.788;2023-02-03T05:59:19;20.70;56.80
11426;DHT22;5769;47.998;7.788;2023-02-03T06:01:47;20.70;56.80
11426;DHT22;5769;47.998;7.788;2023-02-03T06:04:14;20.70;56.80
11426;DHT22;5769;47.998;7.788;2023-02-03T06:06:40;20.70;56.80
11426;DHT22;5769;47.998;7.788;2023-02-03T06:09:07;20.80;56.90
11426;DHT22;5769;47.998;7.788;2023-02-03T06:11:34;20.70;56.90
11426;DHT22;5769;47.998;7.788;2023-02-03T06:14:02;20.70;56.80
11426;DHT22;5769;47.998;7.788;2023-02-03T06:16:29;20.70;56.90
11426;DHT22;5769;47.998;7.788;2023-02-03T06:18:57;20.70;56.90
11426;DHT22;5769;47.998;7.788;2023-02-03T06:21:25;20.70;56.80
11426;DHT22;5769;47.998;7.788;2023-02-03T06:23:51;20.70;56.90
11426;DHT22;5769;47.998;7.788;2023-02-03T06:26:19;20.70;56.70
11426;DHT22;5769;47.998;7.788;2023-02-03T06:28:45;20.70;56.90
11426;DHT22;5769;47.998;7.788;2023-02-03T06:31:12;20.70;56.80
11426;DHT22;5769;47.998;7.788;2023-02-03T06:33:39;20.70;57.40
11426;DHT22;5769;47.998;7.788;2023-02-03T06:36:07;20.70;57.00
11426;DHT22;5769;47.998;7.788;2023-02-03T06:38:34;20.70;57.00
11426;DHT22;5769;47.998;7.788;2023-02-03T06:41:00;20.70;57.00
11426;DHT22;5769;47.998;7.788;2023-02-03T06:43:27;20.70;57.00
11426;DHT22;5769;47.998;7.788;2023-02-03T06:45:54;20.70;57.10
11426;DHT22;5769;47.998;7.788;2023-02-03T06:48:20;20.70;57.10
11426;DHT22;5769;47.998;7.788;2023-02-03T06:50:48;20.70;57.10
11426;DHT22;5769;47.998;7.788;2023-02-03T06:53:16;20.70;57.10
11426;DHT22;5769;47.998;7.788;2023-02-03T06:55:43;20.70;57.20
11426;DHT22;5769;47.998;7.788;2023-02-03T06:58:09;20.70;57.20
11426;DHT22;5769;47.998;7.788;2023-02-03T07:00:36;20.70;57.20
11426;DHT22;5769;47.998;7.788;2023-02-03T07:03:03;20.60;57.20
11426;DHT22;5769;47.998;7.788;2023-02-03T07:05:29;20.70;57.30
11426;DHT22;5769;47.998;7.788;2023-02-03T07:07:56;20.70;57.20
11426;DHT22;5769;47.998;7.788;2023-02-03T07:10:24;20.60;57.30
11426;DHT22;5769;47.998;7.788;2023-02-03T07:12:51;20.60;57.30
11426;DHT22;5769;47.998;7.788;2023-02-03T07:15:18;20.60;57.30
11426;DHT22;5769;47.998;7.788;2023-02-03T07:17:46;20.60;57.30
11426;DHT22;5769;47.998;7.788;2023-02-03T07:20:19;20.60;57.30
11426;DHT22;5769;47.998;7.788;2023-02-03T07:22:50;20.60;57.40
11426;DHT22;5769;47.998;7.788;2023-02-03T07:25:17;20.60;57.40
11426;DHT22;5769;47.998;7.788;2023-02-03T07:27:45;20.60;57.40
11426;DHT22;5769;47.998;7.788;2023-02-03T07:30:12;20.60;57.40
11426;DHT22;5769;47.998;7.788;2023-02-03T07:32:39;20.60;57.40
11426;DHT22;5769;47.998;7.788;2023-02-03T07:35:06;20.60;57.40
11426;DHT22;5769;47.998;7.788;2023-02-03T07:37:33;20.60;57.40
11426;DHT22;5769;47.998;7.788;2023-02-03T07:39:59;20.60;57.40
11426;DHT22;5769;47.998;7.788;2023-02-03T07:42:26;20.60;57.50
11426;DHT22;5769;47.998;7.788;2023-02-03T07:44:54;20.60;57.50
11426;DHT22;5769;47.998;7.788;2023-02-03T07:47:21;20.60;57.50
11426;DHT22;5769;47.998;7.788;2023-02-03T07:49:47;20.60;57.50
11426;DHT22;5769;47.998;7.788;2023-02-03T07:52:14;20.60;57.50
11426;DHT22;5769;47.998;7.788;2023-02-03T07:54:41;20.60;57.50
11426;DHT22;5769;47.998;7.788;2023-02-03T07:57:07;20.60;57.50
11426;DHT22;5769;47.998;7.788;2023-02-03T07:59:34;20.60;57.50
11426;DHT22;5769;47.998;7.788;2023-02-03T08:02:02;20.60;57.50
11426;DHT22;5769;47.998;7.788;2023-02-03T08:04:29;20.60;57.60
11426;DHT22;5769;47.998;7.788;2023-02-03T08:06:56;20.60;57.60
11426;DHT22;5769;47.998;7.788;2023-02-03T08:09:22;20.60;57.50
11426;DHT22;5769;47.998;7.788;2023-02-03T08:11:49;20.60;57.60
11426;DHT22;5769;47.998;7.788;2023-02-03T08:14:16;20.60;57.60
11426;DHT22;5769;47.998;7.788;2023-02-03T08:16:42;20.60;57.60
11426;DHT22;5769;47.998;7.788;2023-02-03T08:19:12;20.60;57.60
11426;DHT22;5769;47.998;7.788;2023-02-03T08:21:38;20.50;57.50
11426;DHT22;5769;47.998;7.788;2023-02-03T08:24:05;20.60;57.60
11426;DHT22;5769;47.998;7.788;2023-02-03T08:26:32;20.60;57.60
11426;DHT22;5769;47.998;7.788;2023-02-03T08:28:59;20.50;57.60
11426;DHT22;5769;47.998;7.788;2023-02-03T08:31:25;20.60;57.60
11426;DHT22;5769;47.998;7.788;2023-02-03T08:33:52;20.50;57.60
11426;DHT22;5769;47.998;7.788;2023-02-03T08:36:20;20.50;57.60
11426;DHT22;5769;47.998;7.788;2023-02-03T08:38:47;20.60;57.70
11426;DHT22;5769;47.998;7.788;2023-02-03T08:41:15;20.50;57.60
11426;DHT22;5769;47.998;7.788;2023-02-03T08:43:43;20.50;57.70
11426;DHT22;5769;47.998;7.788;2023-02-03T08:46:11;20.50;57.70
11426;DHT22;5769;47.998;7.788;2023-02-03T08:48:38;20.50;57.70
11426;DHT22;5769;47.998;7.788;2023-02-03T08:51:13;20.50;57.70
11426;DHT22;5769;47.998;7.788;2023-02-03T08:53:41;20.50;58.30
11426;DHT22;5769;47.998;7.788;2023-02-03T08:56:10;20.50;57.70
11426;DHT22;5769;47.998;7.788;2023-02-03T08:58:37;20.50;57.70
11426;DHT22;5769;47.998;7.788;2023-02-03T09:01:08;20.50;57.70
11426;DHT22;5769;47.998;7.788;2023-02-03T09:03:36;20.50;57.70
11426;DHT22;5769;47.998;7.788;2023-02-03T09:06:03;20.50;57.70
11426;DHT22;5769;47.998;7.788;2023-02-03T09:08:31;20.50;57.70
11426;DHT22;5769;47.998;7.788;2023-02-03T09:10:59;20.50;57.70
11426;DHT22;5769;47.998;7.788;2023-02-03T09:13:25;20.50;57.70
11426;DHT22;5769;47.998;7.788;2023-02-03T09:15:52;20.50;57.80
11426;DHT22;5769;47.998;7.788;2023-02-03T09:18:19;20.50;57.80
11426;DHT22;5769;47.998;7.788;2023-02-03T09:20:45;20.50;57.80
11426;DHT22;5769;47.998;7.788;2023-02-03T09:23:12;20.50;57.80
11426;DHT22;5769;47.998;7.788;2023-02-03T09:25:39;20.50;57.80
11426;DHT22;5769;47.998;7.788;2023-02-03T09:28:07;20.50;57.80
11426;DHT22;5769;47.998;7.788;2023-02-03T09:30:33;20.50;57.80
11426;DHT22;5769;47.998;7.788;2023-02-03T09:33:00;20.50;57.80
11426;DHT22;5769;47.998;7.788;2023-02-03T09:35:26;20.50;57.80
11426;DHT22;5769;47.998;7.788;2023-02-03T09:37:54;20.50;57.80
11426;DHT22;5769;47.998;7.788;2023-02-03T09:40:25;20.50;57.80
11426;DHT22;5769;47.998;7.788;2023-02-03T09:43:03;20.50;57.80
11426;DHT22;5769;47.998;7.788;2023-02-03T09:45:33;20.50;57.90
11426;DHT22;5769;47.998;7.788;2023-02-03T09:48:05;20.50;57.90
11426;DHT22;5769;47.998;7.788;2023-02-03T09:50:35;20.50;57.90
11426;DHT22;5769;47.998;7.788;2023-02-03T09:53:06;20.50;57.90
11426;DHT22;5769;47.998;7.788;2023-02-03T09:55:37;20.50;57.90
11426;DHT22;5769;47.998;7.788;2023-02-03T09:58:08;20.50;57.90
11426;DHT22;5769;47.998;7.788;2023-02-03T10:00:41;20.50;57.90
11426;DHT22;5769;47.998;7.788;2023-02-03T10:03:16;20.50;57.90
11426;DHT22;5769;47.998;7.788;2023-02-03T10:05:56;20.50;57.90
11426;DHT22;5769;47.998;7.788;2023-02-03T10:08:34;20.40;57.80
11426;DHT22;5769;47.998;7.788;2023-02-03T10:11:13;20.50;57.90
11426;DHT22;5769;47.998;7.788;2023-02-03T10:13:52;20.50;57.90
11426;DHT22;5769;47.998;7.788;2023-02-03T10:16:47;20.50;57.90
11426;DHT22;5769;47.998;7.788;2023-02-03T10:19:21;20.50;58.00
11426;DHT22;5769;47.998;7.788;2023-02-03T10:21:51;20.40;58.00
11426;DHT22;5769;47.998;7.788;2023-02-03T10:24:24;20.50;58.00
11426;DHT22;5769;47.998;7.788;2023-02-03T10:26:52;20.40;57.90
11426;DHT22;5769;47.998;7.788;2023-02-03T10:29:23;20.50;58.00
11426;DHT22;5769;47.998;7.788;2023-02-03T10:31:53;20.40;58.00
11426;DHT22;5769;47.998;7.788;2023-02-03T10:34:23;20.40;57.90
11426;DHT22;5769;47.998;7.788;2023-02-03T10:36:55;20.50;58.00
11426;DHT22;5769;47.998;7.788;2023-02-03T10:39:29;20.40;58.00
11426;DHT22;5769;47.998;7.788;2023-02-03T10:41:57;20.40;58.00
11426;DHT22;5769;47.998;7.788;2023-02-03T10:44:30;20.40;58.00
11426;DHT22;5769;47.998;7.788;2023-02-03T10:46:58;20.40;58.00
11426;DHT22;5769;47.998;7.788;2023-02-03T10:49:26;20.40;58.00
11426;DHT22;5769;47.998;7.788;2023-02-03T10:51:57;20.40;58.10
11426;DHT22;5769;47.998;7.788;2023-02-03T10:54:29;20.40;57.80
11426;DHT22;5769;47.998;7.788;2023-02-03T10:57:01;20.40;57.60
11426;DHT22;5769;47.998;7.788;2023-02-03T10:59:30;20.40;57.20
11426;DHT22;5769;47.998;7.788;2023-02-03T11:01:59;20.40;57.00
11426;DHT22;5769;47.998;7.788;2023-02-03T11:04:28;20.50;57.10
11426;DHT22;5769;47.998;7.788;2023-02-03T11:06:56;20.40;56.90
11426;DHT22;5769;47.998;7.788;2023-02-03T11:09:39;20.40;56.80
11426;DHT22;5769;47.998;7.788;2023-02-03T11:12:11;20.50;56.90
11426;DHT22;5769;47.998;7.788;2023-02-03T11:14:39;20.50;56.90
11426;DHT22;5769;47.998;7.788;2023-02-03T11:17:15;20.50;56.90
11426;DHT22;5769;47.998;7.788;2023-02-03T11:19:43;20.50;56.90
11426;DHT22;5769;47.998;7.788;2023-02-03T11:22:12;20.50;56.70
11426;DHT22;5769;47.998;7.788;2023-02-03T11:24:40;20.50;56.80
11426;DHT22;5769;47.998;7.788;2023-02-03T11:27:10;20.50;56.80
11426;DHT22;5769;47.998;7.788;2023-02-03T11:29:41;20.50;56.70
11426;DHT22;5769;47.998;7.788;2023-02-03T11:32:17;20.50;56.70
11426;DHT22;5769;47.998;7.788;2023-02-03T11:34:48;20.50;56.60
11426;DHT22;5769;47.998;7.788;2023-02-03T11:37:28;20.50;56.60
11426;DHT22;5769;47.998;7.788;2023-02-03T11:40:12;20.50;56.60
11426;DHT22;5769;47.998;7.788;2023-02-03T11:42:59;20.50;56.60
11426;DHT22;5769;47.998;7.788;2023-02-03T11:45:27;20.50;56.60
11426;DHT22;5769;47.998;7.788;2023-02-03T11:47:59;20.50;56.60
11426;DHT22;5769;47.998;7.788;2023-02-03T11:50:30;20.50;56.70
11426;DHT22;5769;47.998;7.788;2023-02-03T11:53:16;20.60;56.80
11426;DHT22;5769;47.998;7.788;2023-02-03T11:55:52;20.60;56.80
11426;DHT22;5769;47.998;7.788;2023-02-03T12:01:41;20.50;56.80
11426;DHT22;5769;47.998;7.788;2023-02-03T12:04:34;20.50;56.90
11426;DHT22;5769;47.998;7.788;2023-02-03T12:10:11;20.50;57.10
11426;DHT22;5769;47.998;7.788;2023-02-03T12:12:51;20.50;57.10
11426;DHT22;5769;47.998;7.788;2023-02-03T12:15:33;20.50;57.10
11426;DHT22;5769;47.998;7.788;2023-02-03T12:18:14;20.50;57.20
11426;DHT22;5769;47.998;7.788;2023-02-03T12:20:56;20.50;57.20
11426;DHT22;5769;47.998;7.788;2023-02-03T12:23:35;20.50;57.20
11426;DHT22;5769;47.998;7.788;2023-02-03T12:26:12;20.50;57.30
11426;DHT22;5769;47.998;7.788;2023-02-03T12:28:49;20.40;57.30
11426;DHT22;5769;47.998;7.788;2023-02-03T12:31:22;20.40;57.30
11426;DHT22;5769;47.998;7.788;2023-02-03T12:33:59;20.50;57.30
11426;DHT22;5769;47.998;7.788;2023-02-03T12:36:34;20.40;57.40
11426;DHT22;5769;47.998;7.788;2023-02-03T12:39:06;20.50;57.40
11426;DHT22;5769;47.998;7.788;2023-02-03T12:41:41;20.40;57.30
11426;DHT22;5769;47.998;7.788;2023-02-03T12:44:15;20.40;57.40
11426;DHT22;5769;47.998;7.788;2023-02-03T12:46:45;20.40;57.40
11426;DHT22;5769;47.998;7.788;2023-02-03T12:49:24;20.40;57.40
11426;DHT22;5769;47.998;7.788;2023-02-03T12:51:57;20.40;57.50
11426;DHT22;5769;47.998;7.788;2023-02-03T12:54:33;20.40;57.50
11426;DHT22;5769;47.998;7.788;2023-02-03T12:57:11;20.40;57.50
11426;DHT22;5769;47.998;7.788;2023-02-03T12:59:41;20.40;57.50
11426;DHT22;5769;47.998;7.788;2023-02-03T13:02:14;20.40;57.50
11426;DHT22;5769;47.998;7.788;2023-02-03T13:04:48;20.40;57.50
11426;DHT22;5769;47.998;7.788;2023-02-03T13:07:21;20.40;57.50
11426;DHT22;5769;47.998;7.788;2023-02-03T13:09:57;20.40;57.60
11426;DHT22;5769;47.998;7.788;2023-02-03T13:12:27;20.40;57.60
11426;DHT22;5769;47.998;7.788;2023-02-03T13:14:59;20.30;57.50
11426;DHT22;5769;47.998;7.788;2023-02-03T13:17:32;20.40;57.60
11426;DHT22;5769;47.998;7.788;2023-02-03T13:20:05;20.40;57.60
11426;DHT22;5769;47.998;7.788;2023-02-03T13:22:39;20.40;57.60
11426;DHT22;5769;47.998;7.788;2023-02-03T13:25:13;20.40;57.70
11426;DHT22;5769;47.998;7.788;2023-02-03T13:27:45;20.30;57.60
11426;DHT22;5769;47.998;7.788;2023-02-03T13:30:31;20.40;57.70
11426;DHT22;5769;47.998;7.788;2023-02-03T13:33:27;20.40;57.70
11426;DHT22;5769;47.998;7.788;2023-02-03T13:36:07;20.30;57.70
11426;DHT22;5769;47.998;7.788;2023-02-03T13:38:49;20.30;57.70
11426;DHT22;5769;47.998;7.788;2023-02-03T13:41:26;20.30;57.70
11426;DHT22;5769;47.998;7.788;2023-02-03T13:43:56;20.30;57.70
11426;DHT22;5769;47.998;7.788;2023-02-03T13:46:25;20.30;57.70
11426;DHT22;5769;47.998;7.788;2023-02-03T13:48:53;20.30;57.70
11426;DHT22;5769;47.998;7.788;2023-02-03T13:51:24;20.40;57.80
11426;DHT22;5769;47.998;7.788;2023-02-03T13:53:58;20.40;57.80
11426;DHT22;5769;47.998;7.788;2023-02-03T13:56:27;20.30;57.70
11426;DHT22;5769;47.998;7.788;2023-02-03T13:59:03;20.30;57.70
11426;DHT22;5769;47.998;7.788;2023-02-03T14:01:33;20.30;57.80
11426;DHT22;5769;47.998;7.788;2023-02-03T14:04:02;20.30;57.80
11426;DHT22;5769;47.998;7.788;2023-02-03T14:06:54;20.30;57.80
11426;DHT22;5769;47.998;7.788;2023-02-03T14:09:32;20.30;57.80
11426;DHT22;5769;47.998;7.788;2023-02-03T14:12:30;20.30;57.80
11426;DHT22;5769;47.998;7.788;2023-02-03T14:15:00;20.30;57.80
11426;DHT22;5769;47.998;7.788;2023-02-03T14:17:54;20.30;57.80
11426;DHT22;5769;47.998;7.788;2023-02-03T14:20:50;20.30;57.80
11426;DHT22;5769;47.998;7.788;2023-02-03T14:23:22;20.30;57.80
11426;DHT22;5769;47.998;7.788;2023-02-03T14:25:54;20.30;57.80
11426;DHT22;5769;47.998;7.788;2023-02-03T14:28:25;20.30;57.80
11426;DHT22;5769;47.998;7.788;2023-02-03T14:31:09;20.30;57.80
11426;DHT22;5769;47.998;7.788;2023-02-03T14:34:07;20.30;57.90
11426;DHT22;5769;47.998;7.788;2023-02-03T14:36:46;20.30;57.90
11426;DHT22;5769;47.998;7.788;2023-02-03T14:42:42;20.30;57.90
11426;DHT22;5769;47.998;7.788;2023-02-03T14:45:20;20.30;57.90
11426;DHT22;5769;47.998;7.788;2023-02-03T14:47:59;20.30;57.90
11426;DHT22;5769;47.998;7.788;2023-02-03T14:50:43;20.20;57.90
11426;DHT22;5769;47.998;7.788;2023-02-03T14:53:23;20.30;57.90
11426;DHT22;5769;47.998;7.788;2023-02-03T14:56:05;20.20;57.90
11426;DHT22;5769;47.998;7.788;2023-02-03T14:58:41;20.30;58.00
11426;DHT22;5769;47.998;7.788;2023-02-03T15:01:23;20.20;57.90
11426;DHT22;5769;47.998;7.788;2023-02-03T15:04:20;20.30;58.00
11426;DHT22;5769;47.998;7.788;2023-02-03T15:06:49;20.20;57.90
11426;DHT22;5769;47.998;7.788;2023-02-03T15:09:21;20.30;58.00
11426;DHT22;5769;47.998;7.788;2023-02-03T15:11:50;20.30;58.00
11426;DHT22;5769;47.998;7.788;2023-02-03T15:14:21;20.20;57.90
11426;DHT22;5769;47.998;7.788;2023-02-03T15:16:55;20.20;57.90
11426;DHT22;5769;47.998;7.788;2023-02-03T15:19:25;20.30;58.00
11426;DHT22;5769;47.998;7.788;2023-02-03T15:21:52;20.20;57.90
11426;DHT22;5769;47.998;7.788;2023-02-03T15:24:20;20.20;58.00
11426;DHT22;5769;47.998;7.788;2023-02-03T15:26:50;20.20;58.00
11426;DHT22;5769;47.998;7.788;2023-02-03T15:29:28;20.20;58.00
11426;DHT22;5769;47.998;7.788;2023-02-03T15:32:02;20.20;58.00
11426;DHT22;5769;47.998;7.788;2023-02-03T15:34:33;20.20;58.00
11426;DHT22;5769;47.998;7.788;2023-02-03T15:37:06;20.20;58.00
11426;DHT22;5769;47.998;7.788;2023-02-03T15:39:46;20.20;58.00
11426;DHT22;5769;47.998;7.788;2023-02-03T15:42:20;20.20;58.00
11426;DHT22;5769;47.998;7.788;2023-02-03T15:44:54;20.20;58.00
11426;DHT22;5769;47.998;7.788;2023-02-03T15:47:29;20.20;58.00
11426;DHT22;5769;47.998;7.788;2023-02-03T15:50:07;20.20;58.00
11426;DHT22;5769;47.998;7.788;2023-02-03T15:52:38;20.20;58.00
11426;DHT22;5769;47.998;7.788;2023-02-03T15:55:17;20.20;58.00
11426;DHT22;5769;47.998;7.788;2023-02-03T15:57:47;20.20;58.00
11426;DHT22;5769;47.998;7.788;2023-02-03T16:00:30;20.20;58.10
11426;DHT22;5769;47.998;7.788;2023-02-03T16:02:57;20.20;58.00
11426;DHT22;5769;47.998;7.788;2023-02-03T16:05:26;20.30;58.00
11426;DHT22;5769;47.998;7.788;2023-02-03T16:07:54;20.30;58.50
11426;DHT22;5769;47.998;7.788;2023-02-03T16:10:26;20.30;58.00
11426;DHT22;5769;47.998;7.788;2023-02-03T16:13:12;20.40;57.90
11426;DHT22;5769;47.998;7.788;2023-02-03T16:15:59;20.30;57.80
11426;DHT22;5769;47.998;7.788;2023-02-03T16:18:26;20.40;57.80